sensor_id;sensor_type;location;lat;lon;timestamp;pressure;altitude;pressure_sealevel;temperature;humidity
4814;BME280;15375;48.540;9.268;2023-12-20T00:01:37;97392.97;;;5.65;100.00
4814;BME280;15375;48.540;9.268;2023-12-20T00:04:03;97409.22;;;5.79;100.00
4814;BME280;15375;48.540;9.268;2023-12-20T00:06:29;97374.41;;;5.60;100.00
4814;BME280;15375;48.540;9.268;2023-12-20T00:08:55;97382.91;;;5.76;100.00
4814;BME280;15375;48.540;9.268;2023-12-20T00:11:20;97362.03;;;5.70;100.00
4814;BME280;15375;48.540;9.268;2023-12-20T00:13:45;97371.34;;;5.79;100.00
4814;BME280;15375;48.540;9.268;2023-12-20T00:16:11;97364.78;;;5.80;100.00
4814;BME280;15375;48.540;9.268;2023-12-20T00:18:36;97363.22;;;5.79;100.00
4814;BME280;15375;48.540;9.268;2023-12-20T00:21:02;97376.78;;;5.87;100.00
4814;BME280;15375;48.540;9.268;2023-12-20T00:23:27;97370.16;;;5.84;100.00
4814;BME280;15375;48.540;9.268;2023-12-20T00:25:53;97335.75;;;5.60;100.00
4814;BME280;15375;48.540;9.268;2023-12-20T00:28:18;97343.09;;;5.63;100.00
4814;BME280;15375;48.540;9.268;2023-12-20T00:30:43;97370.56;;;5.79;100.00
4814;BME280;15375;48.540;9.268;2023-12-20T00:33:09;97330.72;;;5.65;100.00
4814;BME280;15375;48.540;9.268;2023-12-20T00:35:34;97316.81;;;5.60;100.00
4814;BME280;15375;48.540;9.268;2023-12-20T00:38:00;97323.75;;;5.64;100.00
4814;BME280;15375;48.540;9.268;2023-12-20T00:40:25;97305.59;;;5.58;100.00
4814;BME280;15375;48.540;9.268;2023-12-20T00:42:51;97322.63;;;5.72;100.00
4814;BME280;15375;48.540;9.268;2023-12-20T00:45:16;97316.06;;;5.73;100.00
4814;BME280;15375;48.540;9.268;2023-12-20T00:47:41;97316.06;;;5.73;100.00
4814;BME280;15375;48.540;9.268;2023-12-20T00:50:07;97335.78;;;5.85;100.00
4814;BME280;15375;48.540;9.268;2023-12-20T00:52:33;97300.59;;;5.63;100.00
4814;BME280;15375;48.540;9.268;2023-12-20T00:54:58;97304.06;;;5.71;100.00
4814;BME280;15375;48.540;9.268;2023-12-20T00:57:23;97271.97;;;5.59;100.00
4814;BME280;15375;48.540;9.268;2023-12-20T00:59:49;97283.19;;;5.71;100.00
4814;BME280;15375;48.540;9.268;2023-12-20T01:02:14;97287.06;;;5.70;100.00
4814;BME280;15375;48.540;9.268;2023-12-20T01:04:39;97308.34;;;5.93;100.00
4814;BME280;15375;48.540;9.268;2023-12-20T01:07:05;97323.03;;;5.99;100.00
4814;BME280;15375;48.540;9.268;2023-12-20T01:09:30;97309.13;;;5.94;100.00
4814;BME280;15375;48.540;9.268;2023-12-20T01:11:56;97329.63;;;6.09;100.00
4814;BME280;15375;48.540;9.268;2023-12-20T01:14:21;97322.66;;;5.97;100.00
4814;BME280;15375;48.540;9.268;2023-12-20T01:16:47;97324.56;;;5.97;100.00
4814;BME280;15375;48.540;9.268;2023-12-20T01:19:12;97330.78;;;6.04;100.00
4814;BME280;15375;48.540;9.268;2023-12-20T01:21:39;97350.50;;;6.19;100.00
4814;BME280;15375;48.540;9.268;2023-12-20T01:24:05;97310.66;;;5.95;100.00
4814;BME280;15375;48.540;9.268;2023-12-20T01:26:30;97338.50;;;6.13;100.00
4814;BME280;15375;48.540;9.268;2023-12-20T01:28:55;97337.34;;;6.10;100.00
4814;BME280;15375;48.540;9.268;2023-12-20T01:31:21;97345.06;;;6.12;100.00
4814;BME280;15375;48.540;9.268;2023-12-20T01:33:46;97355.16;;;6.11;100.00
4814;BME280;15375;48.540;9.268;2023-12-20T01:36:12;97340.44;;;5.95;100.00
4814;BME280;15375;48.540;9.268;2023-12-20T01:38:37;97368.69;;;6.08;100.00
4814;BME280;15375;48.540;9.268;2023-12-20T01:41:03;97358.25;;;5.96;100.00
4814;BME280;15375;48.540;9.268;2023-12-20T01:43:29;97371.41;;;5.94;100.00
4814;BME280;15375;48.540;9.268;2023-12-20T01:45:55;97356.25;;;5.75;100.00
4814;BME280;15375;48.540;9.268;2023-12-20T01:48:22;97393.81;;;5.94;100.00
4814;BME280;15375;48.540;9.268;2023-12-20T01:50:48;97395.34;;;5.88;100.00
4814;BME280;15375;48.540;9.268;2023-12-20T01:53:14;97382.56;;;5.71;100.00
4814;BME280;15375;48.540;9.268;2023-12-20T01:55:40;97386.41;;;5.73;100.00
4814;BME280;15375;48.540;9.268;2023-12-20T01:58:08;97331.06;;;5.36;100.00
4814;BME280;15375;48.540;9.268;2023-12-20T02:00:35;97373.59;;;5.56;100.00
4814;BME280;15375;48.540;9.268;2023-12-20T02:03:02;97380.19;;;5.55;100.00
4814;BME280;15375;48.540;9.268;2023-12-20T02:05:28;97380.56;;;5.50;100.00
4814;BME280;15375;48.540;9.268;2023-12-20T02:07:54;97309.75;;;5.06;100.00
4814;BME280;15375;48.540;9.268;2023-12-20T02:10:20;97358.88;;;5.40;100.00
4814;BME280;15375;48.540;9.268;2023-12-20T02:12:45;97337.97;;;5.19;100.00
4814;BME280;15375;48.540;9.268;2023-12-20T02:15:11;97330.25;;;5.18;100.00
4814;BME280;15375;48.540;9.268;2023-12-20T02:17:36;97334.91;;;5.21;100.00
4814;BME280;15375;48.540;9.268;2023-12-20T02:20:03;97358.47;;;5.34;100.00
4814;BME280;15375;48.540;9.268;2023-12-20T02:22:31;97349.59;;;5.37;100.00
4814;BME280;15375;48.540;9.268;2023-12-20T02:24:56;97338.78;;;5.30;100.00
4814;BME280;15375;48.540;9.268;2023-12-20T02:27:23;97351.53;;;5.37;100.00
4814;BME280;15375;48.540;9.268;2023-12-20T02:29:49;97357.75;;;5.41;100.00
4814;BME280;15375;48.540;9.268;2023-12-20T02:32:16;97346.88;;;5.34;100.00
4814;BME280;15375;48.540;9.268;2023-12-20T02:34:42;97310.94;;;5.15;100.00
4814;BME280;15375;48.540;9.268;2023-12-20T02:37:07;97328.69;;;5.24;100.00
4814;BME280;15375;48.540;9.268;2023-12-20T02:39:33;97332.56;;;5.26;100.00
4814;BME280;15375;48.540;9.268;2023-12-20T02:41:58;97304.72;;;5.04;100.00
4814;BME280;15375;48.540;9.268;2023-12-20T02:44:26;97352.72;;;5.36;100.00
4814;BME280;15375;48.540;9.268;2023-12-20T02:46:52;97300.88;;;5.05;100.00
4814;BME280;15375;48.540;9.268;2023-12-20T02:49:17;97320.97;;;5.18;100.00
4814;BME280;15375;48.540;9.268;2023-12-20T02:51:43;97328.72;;;5.27;100.00
4814;BME280;15375;48.540;9.268;2023-12-20T02:54:08;97329.88;;;5.30;100.00
4814;BME280;15375;48.540;9.268;2023-12-20T02:56:34;97326.78;;;5.24;100.00
4814;BME280;15375;48.540;9.268;2023-12-20T02:58:59;97313.25;;;5.13;100.00
4814;BME280;15375;48.540;9.268;2023-12-20T03:01:24;97296.19;;;4.99;100.00
4814;BME280;15375;48.540;9.268;2023-12-20T03:03:50;97350.75;;;5.29;100.00
4814;BME280;15375;48.540;9.268;2023-12-20T03:06:17;97319.03;;;5.15;100.00
4814;BME280;15375;48.540;9.268;2023-12-20T03:08:43;97243.59;;;4.68;100.00
4814;BME280;15375;48.540;9.268;2023-12-20T03:11:09;97338.38;;;5.32;100.00
4814;BME280;15375;48.540;9.268;2023-12-20T03:13:34;97329.09;;;5.22;100.00
4814;BME280;15375;48.540;9.268;2023-12-20T03:15:59;97333.34;;;5.23;100.00
4814;BME280;15375;48.540;9.268;2023-12-20T03:18:25;97309.75;;;5.09;100.00
4814;BME280;15375;48.540;9.268;2023-12-20T03:20:50;97342.63;;;5.29;100.00
4814;BME280;15375;48.540;9.268;2023-12-20T03:23:16;97327.94;;;5.20;100.00
4814;BME280;15375;48.540;9.268;2023-12-20T03:25:41;97343.81;;;5.28;100.00
4814;BME280;15375;48.540;9.268;2023-12-20T03:28:07;97365.44;;;5.39;100.00
4814;BME280;15375;48.540;9.268;2023-12-20T03:30:32;97327.91;;;5.05;100.00
4814;BME280;15375;48.540;9.268;2023-12-20T03:32:57;97346.84;;;5.16;100.00
4814;BME280;15375;48.540;9.268;2023-12-20T03:35:23;97364.66;;;5.31;100.00
4814;BME280;15375;48.540;9.268;2023-12-20T03:37:48;97360.03;;;5.28;100.00
4814;BME280;15375;48.540;9.268;2023-12-20T03:40:13;97373.53;;;5.32;100.00
4814;BME280;15375;48.540;9.268;2023-12-20T03:42:39;97341.81;;;5.14;100.00
4814;BME280;15375;48.540;9.268;2023-12-20T03:45:08;97362.72;;;5.32;100.00
4814;BME280;15375;48.540;9.268;2023-12-20T03:47:33;97356.88;;;5.19;100.00
4814;BME280;15375;48.540;9.268;2023-12-20T03:49:58;97358.06;;;5.25;100.00
4814;BME280;15375;48.540;9.268;2023-12-20T03:52:24;97365.78;;;5.27;100.00
4814;BME280;15375;48.540;9.268;2023-12-20T03:54:49;97385.91;;;5.36;100.00
4814;BME280;15375;48.540;9.268;2023-12-20T03:57:14;97395.59;;;5.37;100.00
4814;BME280;15375;48.540;9.268;2023-12-20T03:59:43;97390.97;;;5.38;100.00
4814;BME280;15375;48.540;9.268;2023-12-20T04:02:08;97349.13;;;5.07;100.00
4814;BME280;15375;48.540;9.268;2023-12-20T04:04:34;97371.97;;;5.20;100.00
4814;BME280;15375;48.540;9.268;2023-12-20T04:06:59;97382.78;;;5.20;100.00
4814;BME280;15375;48.540;9.268;2023-12-20T04:09:24;97395.97;;;5.36;100.00
4814;BME280;15375;48.540;9.268;2023-12-20T04:11:50;97384.31;;;5.21;100.00
4814;BME280;15375;48.540;9.268;2023-12-20T04:14:16;97379.31;;;5.16;100.00
4814;BME280;15375;48.540;9.268;2023-12-20T04:16:41;97387.44;;;5.27;100.00
4814;BME280;15375;48.540;9.268;2023-12-20T04:19:07;97318.53;;;4.78;100.00
4814;BME280;15375;48.540;9.268;2023-12-20T04:21:33;97395.53;;;5.23;100.00
4814;BME280;15375;48.540;9.268;2023-12-20T04:23:58;97397.50;;;5.30;100.00
4814;BME280;15375;48.540;9.268;2023-12-20T04:26:23;97379.28;;;5.12;100.00
4814;BME280;15375;48.540;9.268;2023-12-20T04:28:49;97364.56;;;5.03;100.00
4814;BME280;15375;48.540;9.268;2023-12-20T04:31:14;97393.97;;;5.15;100.00
4814;BME280;15375;48.540;9.268;2023-12-20T04:33:39;97401.69;;;5.16;100.00
4814;BME280;15375;48.540;9.268;2023-12-20T04:36:05;97427.25;;;5.33;100.00
4814;BME280;15375;48.540;9.268;2023-12-20T04:38:30;97409.09;;;5.30;100.00
4814;BME280;15375;48.540;9.268;2023-12-20T04:40:56;97411.41;;;5.32;100.00
4814;BME280;15375;48.540;9.268;2023-12-20T04:43:21;97374.22;;;5.07;100.00
4814;BME280;15375;48.540;9.268;2023-12-20T04:45:47;97378.09;;;5.03;100.00
4814;BME280;15375;48.540;9.268;2023-12-20T04:48:12;97340.16;;;4.89;100.00
4814;BME280;15375;48.540;9.268;2023-12-20T04:50:37;97381.94;;;5.09;100.00
4814;BME280;15375;48.540;9.268;2023-12-20T04:53:03;97404.38;;;5.13;100.00
4814;BME280;15375;48.540;9.268;2023-12-20T04:55:28;97423.34;;;5.24;100.00
4814;BME280;15375;48.540;9.268;2023-12-20T04:57:54;97405.13;;;5.10;100.00
4814;BME280;15375;48.540;9.268;2023-12-20T05:00:20;97415.22;;;5.20;100.00
4814;BME280;15375;48.540;9.268;2023-12-20T05:02:45;97426.47;;;5.26;100.00
4814;BME280;15375;48.540;9.268;2023-12-20T05:05:11;97386.53;;;4.94;100.00
4814;BME280;15375;48.540;9.268;2023-12-20T05:07:36;97443.84;;;5.28;100.00
4814;BME280;15375;48.540;9.268;2023-12-20T05:10:02;97441.53;;;5.30;100.00
4814;BME280;15375;48.540;9.268;2023-12-20T05:12:29;97427.56;;;5.18;100.00
4814;BME280;15375;48.540;9.268;2023-12-20T05:14:55;97443.03;;;5.24;100.00
4814;BME280;15375;48.540;9.268;2023-12-20T05:17:20;97428.66;;;5.02;100.00
4814;BME280;15375;48.540;9.268;2023-12-20T05:19:45;97451.94;;;5.25;100.00
4814;BME280;15375;48.540;9.268;2023-12-20T05:22:11;97407.69;;;4.82;100.00
4814;BME280;15375;48.540;9.268;2023-12-20T05:24:36;97403.09;;;4.86;100.00
4814;BME280;15375;48.540;9.268;2023-12-20T05:27:02;97387.19;;;4.74;100.00
4814;BME280;15375;48.540;9.268;2023-12-20T05:29:27;97417.44;;;4.97;100.00
4814;BME280;15375;48.540;9.268;2023-12-20T05:31:52;97391.84;;;4.73;100.00
4814;BME280;15375;48.540;9.268;2023-12-20T05:34:18;97426.69;;;4.96;100.00
4814;BME280;15375;48.540;9.268;2023-12-20T05:36:43;97470.84;;;5.21;100.00
4814;BME280;15375;48.540;9.268;2023-12-20T05:39:09;97454.50;;;5.00;100.00
4814;BME280;15375;48.540;9.268;2023-12-20T05:41:34;97484.38;;;5.25;100.00
4814;BME280;15375;48.540;9.268;2023-12-20T05:43:59;97493.28;;;5.25;100.00
4814;BME280;15375;48.540;9.268;2023-12-20T05:46:25;97471.56;;;5.07;100.00
4814;BME280;15375;48.540;9.268;2023-12-20T05:48:50;97485.53;;;5.20;100.00
4814;BME280;15375;48.540;9.268;2023-12-20T05:51:17;97464.56;;;5.03;100.00
4814;BME280;15375;48.540;9.268;2023-12-20T05:53:42;97484.31;;;5.14;100.00
4814;BME280;15375;48.540;9.268;2023-12-20T05:56:07;97451.78;;;4.96;100.00
4814;BME280;15375;48.540;9.268;2023-12-20T05:58:33;97478.53;;;5.12;100.00
4814;BME280;15375;48.540;9.268;2023-12-20T06:00:58;97478.47;;;5.01;100.00
4814;BME280;15375;48.540;9.268;2023-12-20T06:03:24;97465.28;;;4.96;100.00
4814;BME280;15375;48.540;9.268;2023-12-20T06:05:49;97472.22;;;4.90;100.00
4814;BME280;15375;48.540;9.268;2023-12-20T06:08:14;97469.47;;;4.87;100.00
4814;BME280;15375;48.540;9.268;2023-12-20T06:10:40;97505.56;;;5.12;100.00
4814;BME280;15375;48.540;9.268;2023-12-20T06:13:05;97499.34;;;5.04;100.00
4814;BME280;15375;48.540;9.268;2023-12-20T06:15:32;97504.00;;;5.07;100.00
4814;BME280;15375;48.540;9.268;2023-12-20T06:17:58;97494.25;;;4.92;100.00
4814;BME280;15375;48.540;9.268;2023-12-20T06:20:23;97514.06;;;5.10;100.00
4814;BME280;15375;48.540;9.268;2023-12-20T06:22:48;97489.25;;;4.98;100.00
4814;BME280;15375;48.540;9.268;2023-12-20T06:25:14;97484.97;;;4.90;100.00
4814;BME280;15375;48.540;9.268;2023-12-20T06:27:39;97528.75;;;5.13;100.00
4814;BME280;15375;48.540;9.268;2023-12-20T06:30:06;97528.38;;;5.14;100.00
4814;BME280;15375;48.540;9.268;2023-12-20T06:32:32;97519.44;;;5.07;100.00
4814;BME280;15375;48.540;9.268;2023-12-20T06:34:59;97518.25;;;5.04;100.00
4814;BME280;15375;48.540;9.268;2023-12-20T06:37:24;97500.03;;;4.91;100.00
4814;BME280;15375;48.540;9.268;2023-12-20T06:39:50;97495.78;;;4.90;100.00
4814;BME280;15375;48.540;9.268;2023-12-20T06:42:15;97518.66;;;5.03;100.00
4814;BME280;15375;48.540;9.268;2023-12-20T06:44:41;97482.63;;;4.88;100.00
4814;BME280;15375;48.540;9.268;2023-12-20T06:47:06;97520.59;;;5.06;100.00
4814;BME280;15375;48.540;9.268;2023-12-20T06:49:31;97494.63;;;4.91;100.00
4814;BME280;15375;48.540;9.268;2023-12-20T06:51:57;97526.75;;;5.03;100.00
4814;BME280;15375;48.540;9.268;2023-12-20T06:54:22;97503.84;;;4.86;100.00
4814;BME280;15375;48.540;9.268;2023-12-20T06:56:48;97530.59;;;5.02;100.00
4814;BME280;15375;48.540;9.268;2023-12-20T06:59:13;97528.63;;;4.99;100.00
4814;BME280;15375;48.540;9.268;2023-12-20T07:01:41;97516.66;;;4.93;100.00
4814;BME280;15375;48.540;9.268;2023-12-20T07:04:06;97536.78;;;5.02;100.00
4814;BME280;15375;48.540;9.268;2023-12-20T07:06:32;97527.47;;;4.96;100.00
4814;BME280;15375;48.540;9.268;2023-12-20T07:08:57;97510.06;;;4.90;100.00
4814;BME280;15375;48.540;9.268;2023-12-20T07:11:22;97529.47;;;5.03;100.00
4814;BME280;15375;48.540;9.268;2023-12-20T07:13:48;97520.13;;;4.97;100.00
4814;BME280;15375;48.540;9.268;2023-12-20T07:16:14;97530.63;;;5.05;100.00
4814;BME280;15375;48.540;9.268;2023-12-20T07:18:40;97527.81;;;4.91;100.00
4814;BME280;15375;48.540;9.268;2023-12-20T07:21:05;97564.28;;;5.18;100.00
4814;BME280;15375;48.540;9.268;2023-12-20T07:23:33;97555.41;;;5.14;100.00
4814;BME280;15375;48.540;9.268;2023-12-20T07:25:58;97548.81;;;5.12;100.00
4814;BME280;15375;48.540;9.268;2023-12-20T07:28:23;97534.88;;;5.03;100.00
4814;BME280;15375;48.540;9.268;2023-12-20T07:30:50;97538.75;;;5.09;100.00
4814;BME280;15375;48.540;9.268;2023-12-20T07:33:15;97562.81;;;5.25;100.00
4814;BME280;15375;48.540;9.268;2023-12-20T07:35:40;97558.88;;;5.15;100.00
4814;BME280;15375;48.540;9.268;2023-12-20T07:38:06;97571.31;;;5.23;100.00
4814;BME280;15375;48.540;9.268;2023-12-20T07:40:31;97586.06;;;5.36;100.00
4814;BME280;15375;48.540;9.268;2023-12-20T07:42:57;97585.66;;;5.31;100.00
4814;BME280;15375;48.540;9.268;2023-12-20T07:45:23;97582.13;;;5.27;100.00
4814;BME280;15375;48.540;9.268;2023-12-20T07:47:48;97583.69;;;5.31;100.00
4814;BME280;15375;48.540;9.268;2023-12-20T07:50:15;97591.47;;;5.36;100.00
4814;BME280;15375;48.540;9.268;2023-12-20T07:52:40;97575.53;;;5.24;100.00
4814;BME280;15375;48.540;9.268;2023-12-20T07:55:06;97563.50;;;5.14;100.00
4814;BME280;15375;48.540;9.268;2023-12-20T07:57:31;97591.06;;;5.34;100.00
4814;BME280;15375;48.540;9.268;2023-12-20T07:59:57;97596.88;;;5.36;100.00
4814;BME280;15375;48.540;9.268;2023-12-20T08:02:22;97596.88;;;5.36;100.00
4814;BME280;15375;48.540;9.268;2023-12-20T08:04:48;97574.75;;;5.20;100.00
4814;BME280;15375;48.540;9.268;2023-12-20T08:07:13;97583.66;;;5.24;100.00
4814;BME280;15375;48.540;9.268;2023-12-20T08:09:38;97596.03;;;5.29;100.00
4814;BME280;15375;48.540;9.268;2023-12-20T08:12:04;97595.69;;;5.30;100.00
4814;BME280;15375;48.540;9.268;2023-12-20T08:14:29;97570.50;;;5.19;100.00
4814;BME280;15375;48.540;9.268;2023-12-20T08:16:55;97594.94;;;5.33;100.00
4814;BME280;15375;48.540;9.268;2023-12-20T08:19:20;97587.56;;;5.30;100.00
4814;BME280;15375;48.540;9.268;2023-12-20T08:21:45;97614.69;;;5.44;100.00
4814;BME280;15375;48.540;9.268;2023-12-20T08:24:11;97595.34;;;5.39;100.00
4814;BME280;15375;48.540;9.268;2023-12-20T08:26:36;97593.81;;;5.38;100.00
4814;BME280;15375;48.540;9.268;2023-12-20T08:29:02;97610.50;;;5.50;100.00
4814;BME280;15375;48.540;9.268;2023-12-20T08:31:27;97601.94;;;5.41;100.00
4814;BME280;15375;48.540;9.268;2023-12-20T08:33:52;97617.88;;;5.53;100.00
4814;BME280;15375;48.540;9.268;2023-12-20T08:36:19;97622.50;;;5.56;100.00
4814;BME280;15375;48.540;9.268;2023-12-20T08:38:46;97563.56;;;5.22;100.00
4814;BME280;15375;48.540;9.268;2023-12-20T08:41:12;97632.97;;;5.61;100.00
4814;BME280;15375;48.540;9.268;2023-12-20T08:43:38;97594.25;;;5.47;100.00
4814;BME280;15375;48.540;9.268;2023-12-20T08:46:05;97609.38;;;5.55;100.00
4814;BME280;15375;48.540;9.268;2023-12-20T08:48:30;97627.19;;;5.66;100.00
4814;BME280;15375;48.540;9.268;2023-12-20T08:50:56;97611.31;;;5.58;100.00
4814;BME280;15375;48.540;9.268;2023-12-20T08:53:21;97596.97;;;5.50;100.00
4814;BME280;15375;48.540;9.268;2023-12-20T08:55:46;97631.53;;;5.78;100.00
4814;BME280;15375;48.540;9.268;2023-12-20T08:58:12;97635.38;;;5.77;100.00
4814;BME280;15375;48.540;9.268;2023-12-20T09:00:37;97613.31;;;5.71;100.00
4814;BME280;15375;48.540;9.268;2023-12-20T09:03:04;97636.25;;;5.85;100.00
4814;BME280;15375;48.540;9.268;2023-12-20T09:05:29;97614.13;;;5.79;100.00
4814;BME280;15375;48.540;9.268;2023-12-20T09:07:55;97638.97;;;5.92;100.00
4814;BME280;15375;48.540;9.268;2023-12-20T09:10:20;97633.53;;;5.85;100.00
4814;BME280;15375;48.540;9.268;2023-12-20T09:12:53;97628.50;;;5.87;100.00
4814;BME280;15375;48.540;9.268;2023-12-20T09:15:26;97618.38;;;5.73;100.00
4814;BME280;15375;48.540;9.268;2023-12-20T09:17:52;97634.22;;;5.71;100.00
4814;BME280;15375;48.540;9.268;2023-12-20T09:20:17;97634.13;;;5.60;100.00
4814;BME280;15375;48.540;9.268;2023-12-20T09:22:43;97626.69;;;5.43;100.00
4814;BME280;15375;48.540;9.268;2023-12-20T09:25:10;97633.25;;;5.42;100.00
4814;BME280;15375;48.540;9.268;2023-12-20T09:27:36;97633.59;;;5.37;100.00
4814;BME280;15375;48.540;9.268;2023-12-20T09:30:01;97632.38;;;5.28;100.00
4814;BME280;15375;48.540;9.268;2023-12-20T09:32:27;97654.31;;;5.19;100.00
4814;BME280;15375;48.540;9.268;2023-12-20T09:34:52;97628.25;;;4.97;100.00
4814;BME280;15375;48.540;9.268;2023-12-20T09:37:18;97672.50;;;5.22;100.00
4814;BME280;15375;48.540;9.268;2023-12-20T09:39:43;97636.16;;;5.16;100.00
4814;BME280;15375;48.540;9.268;2023-12-20T09:42:11;97663.97;;;5.20;100.00
4814;BME280;15375;48.540;9.268;2023-12-20T09:44:37;97644.44;;;4.93;100.00
4814;BME280;15375;48.540;9.268;2023-12-20T09:47:06;97639.09;;;5.00;100.00
4814;BME280;15375;48.540;9.268;2023-12-20T09:49:32;97635.66;;;5.03;100.00
4814;BME280;15375;48.540;9.268;2023-12-20T09:51:59;97662.81;;;5.18;100.00
4814;BME280;15375;48.540;9.268;2023-12-20T09:54:26;97664.34;;;5.18;100.00
4814;BME280;15375;48.540;9.268;2023-12-20T09:56:52;97661.53;;;5.04;100.00
4814;BME280;15375;48.540;9.268;2023-12-20T09:59:17;97630.34;;;4.74;100.00
4814;BME280;15375;48.540;9.268;2023-12-20T10:01:43;97674.94;;;4.94;100.00
4814;BME280;15375;48.540;9.268;2023-12-20T10:04:10;97662.09;;;4.84;100.00
4814;BME280;15375;48.540;9.268;2023-12-20T10:06:46;97665.84;;;4.72;100.00
4814;BME280;15375;48.540;9.268;2023-12-20T10:09:12;97640.56;;;4.50;100.00
4814;BME280;15375;48.540;9.268;2023-12-20T10:11:38;97675.09;;;4.71;100.00
4814;BME280;15375;48.540;9.268;2023-12-20T10:14:05;97642.13;;;4.55;100.00
4814;BME280;15375;48.540;9.268;2023-12-20T10:16:31;97661.25;;;4.76;100.00
4814;BME280;15375;48.540;9.268;2023-12-20T10:18:58;97663.28;;;4.86;100.00
4814;BME280;15375;48.540;9.268;2023-12-20T10:21:23;97661.41;;;4.94;100.00
4814;BME280;15375;48.540;9.268;2023-12-20T10:23:51;97648.34;;;4.96;100.00
4814;BME280;15375;48.540;9.268;2023-12-20T10:26:21;97655.50;;;5.22;100.00
4814;BME280;15375;48.540;9.268;2023-12-20T10:28:50;97644.66;;;5.18;100.00
4814;BME280;15375;48.540;9.268;2023-12-20T10:31:34;97635.31;;;5.08;100.00
4814;BME280;15375;48.540;9.268;2023-12-20T10:34:07;97625.53;;;4.97;100.00
4814;BME280;15375;48.540;9.268;2023-12-20T10:36:33;97610.06;;;4.94;100.00
4814;BME280;15375;48.540;9.268;2023-12-20T10:38:59;97618.22;;;4.97;100.00
4814;BME280;15375;48.540;9.268;2023-12-20T10:41:26;97627.16;;;5.05;100.00
4814;BME280;15375;48.540;9.268;2023-12-20T10:44:11;97621.75;;;5.05;100.00
4814;BME280;15375;48.540;9.268;2023-12-20T10:46:39;97611.88;;;5.23;100.00
4814;BME280;15375;48.540;9.268;2023-12-20T10:49:05;97638.63;;;5.39;100.00
4814;BME280;15375;48.540;9.268;2023-12-20T10:51:33;97624.78;;;5.47;100.00
4814;BME280;15375;48.540;9.268;2023-12-20T10:53:59;97608.22;;;5.56;100.00
4814;BME280;15375;48.540;9.268;2023-12-20T10:56:28;97613.59;;;6.21;100.00
4814;BME280;15375;48.540;9.268;2023-12-20T10:59:02;97588.06;;;6.18;100.00
4814;BME280;15375;48.540;9.268;2023-12-20T11:01:31;97593.91;;;6.31;100.00
4814;BME280;15375;48.540;9.268;2023-12-20T11:03:57;97597.72;;;6.16;100.00
4814;BME280;15375;48.540;9.268;2023-12-20T11:09:34;97613.63;;;6.28;100.00
4814;BME280;15375;48.540;9.268;2023-12-20T11:12:20;97605.13;;;6.40;100.00
4814;BME280;15375;48.540;9.268;2023-12-20T11:14:53;97595.72;;;6.02;100.00
4814;BME280;15375;48.540;9.268;2023-12-20T11:17:21;97600.41;;;6.09;100.00
4814;BME280;15375;48.540;9.268;2023-12-20T11:22:19;97591.91;;;6.14;100.00
4814;BME280;15375;48.540;9.268;2023-12-20T11:24:45;97580.63;;;5.98;100.00
4814;BME280;15375;48.540;9.268;2023-12-20T11:27:13;97586.44;;;6.03;100.00
4814;BME280;15375;48.540;9.268;2023-12-20T11:29:38;97615.09;;;6.15;100.00
4814;BME280;15375;48.540;9.268;2023-12-20T11:34:51;97596.47;;;5.96;100.00
4814;BME280;15375;48.540;9.268;2023-12-20T11:37:19;97608.41;;;5.88;100.00
4814;BME280;15375;48.540;9.268;2023-12-20T11:39:45;97594.72;;;5.66;100.00
4814;BME280;15375;48.540;9.268;2023-12-20T11:42:10;97585.50;;;5.74;100.00
4814;BME280;15375;48.540;9.268;2023-12-20T11:44:38;97601.78;;;5.81;100.00
4814;BME280;15375;48.540;9.268;2023-12-20T11:47:04;97602.09;;;5.66;100.00
4814;BME280;15375;48.540;9.268;2023-12-20T11:49:29;97595.38;;;5.42;100.00
4814;BME280;15375;48.540;9.268;2023-12-20T11:51:56;97589.25;;;5.52;100.00
4814;BME280;15375;48.540;9.268;2023-12-20T11:54:22;97603.88;;;5.44;100.00
4814;BME280;15375;48.540;9.268;2023-12-20T11:56:48;97606.22;;;5.49;100.00
4814;BME280;15375;48.540;9.268;2023-12-20T11:59:13;97620.06;;;5.37;100.00
4814;BME280;15375;48.540;9.268;2023-12-20T12:01:38;97592.47;;;5.14;100.00
4814;BME280;15375;48.540;9.268;2023-12-20T12:04:05;97588.56;;;5.08;100.00
4814;BME280;15375;48.540;9.268;2023-12-20T12:06:30;97553.34;;;4.97;100.00
4814;BME280;15375;48.540;9.268;2023-12-20T12:08:56;97590.91;;;5.09;100.00
4814;BME280;15375;48.540;9.268;2023-12-20T12:11:22;97567.38;;;5.13;100.00
4814;BME280;15375;48.540;9.268;2023-12-20T12:13:48;97548.88;;;5.23;100.00
4814;BME280;15375;48.540;9.268;2023-12-20T12:16:17;97589.94;;;5.39;100.00
4814;BME280;15375;48.540;9.268;2023-12-20T12:18:44;97571.63;;;5.14;100.00
4814;BME280;15375;48.540;9.268;2023-12-20T12:21:10;97569.78;;;5.26;100.00
4814;BME280;15375;48.540;9.268;2023-12-20T12:23:35;97575.50;;;5.17;100.00
4814;BME280;15375;48.540;9.268;2023-12-20T12:26:04;97570.88;;;5.21;100.00
4814;BME280;15375;48.540;9.268;2023-12-20T12:28:29;97555.03;;;5.16;100.00
4814;BME280;15375;48.540;9.268;2023-12-20T12:30:59;97591.88;;;5.38;100.00
4814;BME280;15375;48.540;9.268;2023-12-20T12:33:25;97584.41;;;5.21;100.00
4814;BME280;15375;48.540;9.268;2023-12-20T12:35:52;97566.59;;;5.13;100.00
4814;BME280;15375;48.540;9.268;2023-12-20T12:38:20;97575.16;;;5.22;100.00
4814;BME280;15375;48.540;9.268;2023-12-20T12:40:46;97565.84;;;5.20;100.00
4814;BME280;15375;48.540;9.268;2023-12-20T12:43:12;97575.09;;;5.15;100.00
4814;BME280;15375;48.540;9.268;2023-12-20T12:45:38;97553.78;;;5.06;100.00
4814;BME280;15375;48.540;9.268;2023-12-20T12:48:03;97597.66;;;5.37;100.00
4814;BME280;15375;48.540;9.268;2023-12-20T12:50:30;97605.38;;;5.35;100.00
4814;BME280;15375;48.540;9.268;2023-12-20T12:52:55;97592.59;;;5.28;100.00
4814;BME280;15375;48.540;9.268;2023-12-20T12:55:21;97579.00;;;5.21;100.00
4814;BME280;15375;48.540;9.268;2023-12-20T12:57:49;97517.44;;;4.93;100.00
4814;BME280;15375;48.540;9.268;2023-12-20T13:00:15;97569.81;;;5.36;100.00
4814;BME280;15375;48.540;9.268;2023-12-20T13:02:40;97596.78;;;5.22;100.00
4814;BME280;15375;48.540;9.268;2023-12-20T13:05:08;97597.53;;;5.15;100.00
4814;BME280;15375;48.540;9.268;2023-12-20T13:07:34;97591.72;;;5.17;100.00
4814;BME280;15375;48.540;9.268;2023-12-20T13:09:59;97574.25;;;5.04;100.00
4814;BME280;15375;48.540;9.268;2023-12-20T13:12:25;97589.75;;;5.14;100.00